Página principal
METAR-TAF:

METAR-TAF

Aeroportos :

Aeroporto Internacional Indira Gandhi

Nova Deli, Índia

latitude: 28-34N, longitude: 077-07E, altura: 220 m

Observação actual do tempo

O boletim foi feito há 22 minutos, às 12:30 UTC
Vento 7 kt de oes-noroeste
Temperatura 11°C
Humidade 87%
Pressão 1020 hPa
Visibilidade: 1600 m
Nuvens dispersasa uma altura de 10000 ft
neblina

METAR: VIDP 161230Z 29007KT 1600 R28/P2000 R29/P2000 BR SCT100 11/09 Q1020 NOSIG

Hora: 18:22 (12:52 UTC)

Previsão

O boletim foi feito há 1 hora e 52 minutos, às 11:00 UTC
Previsão válida de 16 às 12 UTC a 16 às 21 UTC
Vento 5 kt de oes-noroeste
Visibilidade: 1200 m
Nuvens dispersasa uma altura de 10000 ft
neblina
Tornando-se
de 16 às 18 UTC a 16 às 20 UTC
Vento 4 kt de sudoeste
Visibilidade: 0800 m
Névoa pouco espesso

TAF: VIDP 161100Z 1612/1621 29005KT 1200 BR SCT100 BECMG 1618/1620 23004KT 0800 MIFG

Observações e previsões do tempo de mais de 4000 aeroportos (mensagens METAR e TAF).

As estações disponíveis são os pontos amarelos e vermelhos sobre o mapa.

Mova o rato sobre o mapa para ver o nome da estação.

Depois clique no ponto para visualizar as observações e previsões meteorológicas.

Para alterar o mapa : clique nos botões verdes com uma cruz preta para aumentar o zoom; no botão verde com uma pitada de zoom; ou nas setas verdes para mapas adjacentes.


METAR-TAF: